createdAt,value
2023-05-14T00:00:11.217Z,7.44
2023-05-14T00:04:33.653Z,7.36
2023-05-14T00:08:35.790Z,7.14
2023-05-14T00:12:37.803Z,7.31
2023-05-14T00:16:39.849Z,7.36
2023-05-14T00:20:42.093Z,7.29
2023-05-14T00:24:43.802Z,7.26
2023-05-14T00:28:45.957Z,7.25
2023-05-14T00:32:47.966Z,7.23
2023-05-14T00:36:51.245Z,7.18
2023-05-14T00:40:53.378Z,7.22
2023-05-14T00:44:55.560Z,7.18
2023-05-14T00:48:59.055Z,7.24
2023-05-14T00:53:01.391Z,7.32
2023-05-14T00:57:04.884Z,7.31
2023-05-14T01:01:06.994Z,7.31
2023-05-14T01:05:09.476Z,7.30
2023-05-14T01:09:18.840Z,7.22
2023-05-14T01:13:36.772Z,6.99
2023-05-14T01:17:46.993Z,7.07
2023-05-14T01:21:48.944Z,7.07
2023-05-14T01:25:51.126Z,7.01
2023-05-14T01:30:08.650Z,6.89
2023-05-14T01:34:12.718Z,6.92
2023-05-14T01:38:17.941Z,6.89
2023-05-14T01:42:20.733Z,6.96
2023-05-14T01:46:24.718Z,6.90
2023-05-14T01:50:26.758Z,6.85
2023-05-14T01:54:28.992Z,6.86
2023-05-14T01:58:31.043Z,6.80
2023-05-14T02:02:33.191Z,6.82
2023-05-14T02:06:35.269Z,6.56
2023-05-14T02:10:37.255Z,6.70
2023-05-14T02:14:39.375Z,6.73
2023-05-14T02:18:41.493Z,6.72
2023-05-14T02:22:46.161Z,6.59
2023-05-14T02:26:48.142Z,6.51
2023-05-14T02:30:50.149Z,6.56
2023-05-14T02:34:52.433Z,6.50
2023-05-14T02:38:54.454Z,6.40
2023-05-14T02:42:57.253Z,6.37
2023-05-14T02:46:59.300Z,6.40
2023-05-14T02:51:02.802Z,6.39
2023-05-14T02:55:05.370Z,6.31
2023-05-14T02:59:07.431Z,6.40
2023-05-14T03:03:10.108Z,6.32
2023-05-14T03:07:12.730Z,6.27
2023-05-14T03:11:14.743Z,6.27
2023-05-14T03:15:17.025Z,6.32
2023-05-14T03:19:19.366Z,6.33
2023-05-14T03:23:21.381Z,6.44
2023-05-14T03:27:23.608Z,6.55
2023-05-14T03:31:26.476Z,6.67
2023-05-14T03:35:31.608Z,6.77
2023-05-14T03:39:33.908Z,6.94
2023-05-14T03:43:36.176Z,7.04
2023-05-14T03:47:38.242Z,7.24
2023-05-14T03:51:41.173Z,7.36
2023-05-14T03:55:43.137Z,7.53
2023-05-14T03:59:46.689Z,7.66
2023-05-14T04:03:48.791Z,7.82
2023-05-14T04:07:52.528Z,7.99
2023-05-14T04:11:55.578Z,8.26
2023-05-14T04:15:57.801Z,8.42
2023-05-14T04:19:59.808Z,8.55
2023-05-14T04:24:01.947Z,8.78
2023-05-14T04:28:04.054Z,9.08
2023-05-14T04:32:06.717Z,9.42
2023-05-14T04:36:08.874Z,9.77
2023-05-14T04:40:11.358Z,9.99
2023-05-14T04:44:13.753Z,10.30
2023-05-14T04:48:15.809Z,10.46
2023-05-14T04:52:17.782Z,10.77
2023-05-14T04:56:19.914Z,11.05
2023-05-14T05:00:22.507Z,11.24
2023-05-14T05:04:25.099Z,11.60
2023-05-14T05:08:27.082Z,11.59
2023-05-14T05:12:30.388Z,11.89
2023-05-14T05:16:32.498Z,12.19
2023-05-14T05:20:34.635Z,12.46
2023-05-14T05:24:36.572Z,12.63
2023-05-14T05:28:38.580Z,12.95
2023-05-14T05:32:40.707Z,13.17
2023-05-14T05:36:42.794Z,13.42
2023-05-14T05:40:45.045Z,13.81
2023-05-14T05:44:48.264Z,14.11
2023-05-14T05:48:50.248Z,14.42
2023-05-14T05:52:52.714Z,14.69
2023-05-14T05:56:54.701Z,15.00
2023-05-14T06:00:57.750Z,15.32
2023-05-14T06:04:59.805Z,15.53
2023-05-14T06:09:02.103Z,15.82
2023-05-14T06:13:03.745Z,16.15
2023-05-14T06:17:05.860Z,16.46
2023-05-14T06:21:07.811Z,16.63
2023-05-14T06:25:10.468Z,17.00
2023-05-14T06:29:12.587Z,17.19
2023-05-14T06:33:15.076Z,17.62
2023-05-14T06:37:17.080Z,17.90
2023-05-14T06:41:19.154Z,18.12
2023-05-14T06:45:21.148Z,18.54
2023-05-14T06:49:23.337Z,18.82
2023-05-14T06:53:25.357Z,19.16
2023-05-14T06:57:27.399Z,19.34
2023-05-14T07:01:30.385Z,19.60
2023-05-14T07:05:32.521Z,19.64
2023-05-14T07:09:34.597Z,19.96
2023-05-14T07:13:36.637Z,20.24
2023-05-14T07:17:38.672Z,20.30
2023-05-14T07:21:40.858Z,20.59
2023-05-14T07:25:42.806Z,20.96
2023-05-14T07:29:45.148Z,21.07
2023-05-14T07:33:47.140Z,21.07
2023-05-14T07:37:49.361Z,21.20
2023-05-14T07:41:51.439Z,21.60
2023-05-14T07:45:53.556Z,21.60
2023-05-14T07:49:56.588Z,21.54
2023-05-14T07:53:58.884Z,21.66
2023-05-14T07:58:00.854Z,21.77
2023-05-14T08:02:03.116Z,21.68
2023-05-14T08:06:05.793Z,21.61
2023-05-14T08:10:08.571Z,21.80
2023-05-14T08:14:10.613Z,21.97
2023-05-14T08:18:12.857Z,22.26
2023-05-14T08:22:15.193Z,22.36
2023-05-14T08:26:17.270Z,22.39
2023-05-14T08:30:19.436Z,22.49
2023-05-14T08:34:22.353Z,22.35
2023-05-14T08:38:24.411Z,22.37
2023-05-14T08:42:27.040Z,22.29
2023-05-14T08:46:31.849Z,22.43
2023-05-14T08:50:33.955Z,22.64
2023-05-14T08:54:36.145Z,22.63
2023-05-14T08:58:38.531Z,22.82
2023-05-14T09:02:41.671Z,23.03
2023-05-14T09:06:46.404Z,23.10
2023-05-14T09:10:48.396Z,23.26
2023-05-14T09:14:51.219Z,23.27
2023-05-14T09:18:53.333Z,23.14
2023-05-14T09:22:55.552Z,23.14
2023-05-14T09:26:58.440Z,23.32
2023-05-14T09:31:02.120Z,23.13
2023-05-14T09:35:18.568Z,23.51
2023-05-14T09:39:22.332Z,23.51
2023-05-14T09:43:24.463Z,23.30
2023-05-14T09:47:26.696Z,23.51
2023-05-14T09:51:31.969Z,23.76
2023-05-14T09:55:34.009Z,23.34
2023-05-14T09:59:36.021Z,23.35
2023-05-14T10:03:38.314Z,23.75
2023-05-14T10:07:44.565Z,23.37
2023-05-14T10:11:53.313Z,22.88
2023-05-14T10:16:07.621Z,23.45
2023-05-14T10:20:14.920Z,23.69
2023-05-14T10:24:17.966Z,23.79
2023-05-14T10:28:20.287Z,23.44
2023-05-14T10:32:26.523Z,23.71
2023-05-14T10:36:28.976Z,23.77
2023-05-14T10:40:31.845Z,23.15
2023-05-14T10:44:35.736Z,23.26
2023-05-14T10:48:41.769Z,24.04
2023-05-14T10:52:45.277Z,23.81
2023-05-14T10:56:47.298Z,24.11
2023-05-14T11:00:54.568Z,23.17
2023-05-14T11:04:59.380Z,23.26
2023-05-14T11:09:02.059Z,23.29
2023-05-14T11:13:04.170Z,23.32
2023-05-14T11:17:06.371Z,23.86
2023-05-14T11:21:08.510Z,24.74
2023-05-14T11:25:14.564Z,24.68
2023-05-14T11:29:16.950Z,24.81
2023-05-14T11:33:19.755Z,24.78
2023-05-14T11:37:21.832Z,24.36
2023-05-14T11:41:23.980Z,24.87
2023-05-14T11:45:27.480Z,25.21
2023-05-14T11:49:29.978Z,25.44
2023-05-14T11:53:32.435Z,25.25
2023-05-14T11:57:35.402Z,25.16
2023-05-14T12:01:38.550Z,24.79
2023-05-14T12:05:40.784Z,24.22
2023-05-14T12:09:51.691Z,24.77
2023-05-14T12:13:53.900Z,25.13
2023-05-14T12:17:55.945Z,25.00
2023-05-14T12:22:01.013Z,25.21
2023-05-14T12:26:08.110Z,25.01
2023-05-14T12:30:20.684Z,24.85
2023-05-14T12:34:37.483Z,25.11
2023-05-14T12:38:41.315Z,24.54
2023-05-14T12:42:43.436Z,24.20
2023-05-14T12:46:45.980Z,24.65
2023-05-14T12:50:48.780Z,24.90
2023-05-14T12:54:50.588Z,25.20
2023-05-14T12:58:52.542Z,24.91
2023-05-14T13:02:54.855Z,23.93
2023-05-14T13:06:56.949Z,23.24
2023-05-14T13:10:58.996Z,24.00
2023-05-14T13:15:01.122Z,24.53
2023-05-14T13:19:03.281Z,24.25
2023-05-14T13:23:05.330Z,24.10
2023-05-14T13:27:07.403Z,23.78
2023-05-14T13:31:11.860Z,23.69
2023-05-14T13:35:14.303Z,24.26
2023-05-14T13:39:16.362Z,24.29
2023-05-14T13:43:18.631Z,24.74
2023-05-14T13:47:20.736Z,25.10
2023-05-14T13:51:23.405Z,25.37
2023-05-14T13:55:26.021Z,25.20
2023-05-14T13:59:28.157Z,24.55
2023-05-14T14:03:30.235Z,24.47
2023-05-14T14:07:32.425Z,24.88
2023-05-14T14:11:34.409Z,25.11
2023-05-14T14:15:36.883Z,25.02
2023-05-14T14:19:38.845Z,25.36
2023-05-14T14:23:40.873Z,25.12
2023-05-14T14:27:42.924Z,25.35
2023-05-14T14:31:44.961Z,25.48
2023-05-14T14:35:47.001Z,25.37
2023-05-14T14:39:49.109Z,25.40
2023-05-14T14:43:51.130Z,25.48
2023-05-14T14:48:31.553Z,25.18
2023-05-14T14:52:33.955Z,25.47
2023-05-14T14:56:36.405Z,25.13
2023-05-14T15:00:40.228Z,24.68
2023-05-14T15:04:42.290Z,24.59
2023-05-14T15:08:44.372Z,24.81
2023-05-14T15:12:46.455Z,24.49
2023-05-14T15:16:50.809Z,23.90
2023-05-14T15:20:53.367Z,23.58
2023-05-14T15:24:55.373Z,23.67
2023-05-14T15:28:58.956Z,23.77
2023-05-14T15:33:01.119Z,23.78
2023-05-14T15:37:03.149Z,23.56
2023-05-14T15:41:05.486Z,23.59
2023-05-14T15:45:08.276Z,23.16
2023-05-14T15:49:10.866Z,23.06
2023-05-14T15:53:12.958Z,22.81
2023-05-14T15:57:16.360Z,22.88
2023-05-14T16:01:20.010Z,22.54
2023-05-14T16:05:22.157Z,22.53
2023-05-14T16:09:24.152Z,22.64
2023-05-14T16:13:26.113Z,22.45
2023-05-14T16:17:28.522Z,22.28
2023-05-14T16:21:31.924Z,21.99
2023-05-14T16:25:34.076Z,22.03
2023-05-14T16:29:36.248Z,22.05
2023-05-14T16:33:37.916Z,22.03
2023-05-14T16:37:39.891Z,22.07
2023-05-14T16:41:42.080Z,21.95
2023-05-14T16:45:44.098Z,21.91
2023-05-14T16:49:46.215Z,21.96
2023-05-14T16:53:48.298Z,21.80
2023-05-14T16:57:50.317Z,21.52
2023-05-14T17:01:52.347Z,21.47
2023-05-14T17:05:54.494Z,21.19
2023-05-14T17:09:58.062Z,21.18
2023-05-14T17:14:00.114Z,21.06
2023-05-14T17:18:01.864Z,20.88
2023-05-14T17:22:05.894Z,20.60
2023-05-14T17:26:08.584Z,20.62
2023-05-14T17:30:11.022Z,20.63
2023-05-14T17:34:13.006Z,20.69
2023-05-14T17:38:15.063Z,20.59
2023-05-14T17:42:17.346Z,20.43
2023-05-14T17:46:19.940Z,20.14
2023-05-14T17:50:22.029Z,20.03
2023-05-14T17:54:24.143Z,19.80
2023-05-14T17:58:26.223Z,19.44
2023-05-14T18:02:28.273Z,19.22
2023-05-14T18:06:30.950Z,18.68
2023-05-14T18:10:33.078Z,18.50
2023-05-14T18:14:35.183Z,18.40
2023-05-14T18:18:37.322Z,18.20
2023-05-14T18:22:39.058Z,17.90
2023-05-14T18:26:41.138Z,17.67
2023-05-14T18:30:43.553Z,17.40
2023-05-14T18:34:45.752Z,16.94
2023-05-14T18:38:47.796Z,16.86
2023-05-14T18:42:49.883Z,16.63
2023-05-14T18:46:52.691Z,16.46
2023-05-14T18:50:54.741Z,16.23
2023-05-14T18:54:56.888Z,16.09
2023-05-14T18:58:58.950Z,15.81
2023-05-14T19:03:00.988Z,15.48
2023-05-14T19:07:03.162Z,15.66
2023-05-14T19:11:05.198Z,15.49
2023-05-14T19:15:08.017Z,15.38
2023-05-14T19:19:10.340Z,15.20
2023-05-14T19:23:12.749Z,15.08
2023-05-14T19:27:16.579Z,15.00
2023-05-14T19:31:18.754Z,14.75
2023-05-14T19:35:20.874Z,14.67
2023-05-14T19:39:22.944Z,14.60
2023-05-14T19:43:26.072Z,14.57
2023-05-14T19:47:28.845Z,14.52
2023-05-14T19:51:30.927Z,14.53
2023-05-14T19:55:32.997Z,14.35
2023-05-14T19:59:35.212Z,14.23
2023-05-14T20:03:37.599Z,14.13
2023-05-14T20:07:40.477Z,13.89
2023-05-14T20:11:42.697Z,13.90
2023-05-14T20:15:45.287Z,13.83
2023-05-14T20:19:47.534Z,13.85
2023-05-14T20:23:49.546Z,13.96
2023-05-14T20:27:52.542Z,14.03
2023-05-14T20:31:54.555Z,14.04
2023-05-14T20:35:56.763Z,14.00
2023-05-14T20:40:00.508Z,13.90
2023-05-14T20:44:02.654Z,13.89
2023-05-14T20:48:09.787Z,13.96
2023-05-14T20:52:15.840Z,14.03
2023-05-14T20:56:17.834Z,14.02
2023-05-14T21:00:20.128Z,14.03
2023-05-14T21:04:22.270Z,14.05
2023-05-14T21:08:24.699Z,14.13
2023-05-14T21:12:26.689Z,14.10
2023-05-14T21:16:29.917Z,14.02
2023-05-14T21:20:32.211Z,14.03
2023-05-14T21:24:34.331Z,14.28
2023-05-14T21:28:36.252Z,14.33
2023-05-14T21:32:38.490Z,14.49
2023-05-14T21:36:40.703Z,14.59
2023-05-14T21:40:42.879Z,14.57
2023-05-14T21:44:44.931Z,14.58
2023-05-14T21:48:47.119Z,14.36
2023-05-14T21:52:49.199Z,14.55
2023-05-14T21:56:51.519Z,14.38
2023-05-14T22:00:53.540Z,14.49
2023-05-14T22:04:55.746Z,14.71
2023-05-14T22:08:57.861Z,14.69
2023-05-14T22:12:59.902Z,14.61
2023-05-14T22:17:01.932Z,14.42
2023-05-14T22:21:04.139Z,14.41
2023-05-14T22:25:06.550Z,14.48
2023-05-14T22:29:08.697Z,14.74
2023-05-14T22:33:10.968Z,14.80
2023-05-14T22:37:13.050Z,14.88
2023-05-14T22:41:17.397Z,14.92
2023-05-14T22:45:19.537Z,14.92
2023-05-14T22:49:21.494Z,14.87
2023-05-14T22:53:25.058Z,14.88
2023-05-14T22:57:27.399Z,14.90
2023-05-14T23:01:30.644Z,14.86
2023-05-14T23:05:32.762Z,14.86
2023-05-14T23:09:34.825Z,14.60
2023-05-14T23:13:37.015Z,14.59
2023-05-14T23:17:39.858Z,14.89
2023-05-14T23:21:42.061Z,14.98
2023-05-14T23:25:44.323Z,14.95
2023-05-14T23:29:46.347Z,15.06
2023-05-14T23:33:48.366Z,15.08
2023-05-14T23:37:51.064Z,15.14
2023-05-14T23:41:53.138Z,15.12
2023-05-14T23:45:55.416Z,15.11
2023-05-14T23:49:57.598Z,15.13
2023-05-14T23:53:59.617Z,15.23
2023-05-14T23:58:01.782Z,15.21
